createdAt,value
2023-04-25T00:00:59.138Z,56.04
2023-04-25T00:03:26.811Z,56.16
2023-04-25T00:05:54.617Z,56.20
2023-04-25T00:08:22.289Z,56.25
2023-04-25T00:10:49.793Z,56.48
2023-04-25T00:13:18.755Z,56.45
2023-04-25T00:15:47.249Z,56.66
2023-04-25T00:18:16.046Z,56.67
2023-04-25T00:20:47.623Z,56.83
2023-04-25T00:23:19.279Z,56.83
2023-04-25T00:25:49.161Z,56.88
2023-04-25T00:28:17.301Z,57.05
2023-04-25T00:30:44.939Z,57.17
2023-04-25T00:33:12.534Z,57.21
2023-04-25T00:35:40.332Z,57.19
2023-04-25T00:38:07.902Z,57.14
2023-04-25T00:40:36.242Z,57.31
2023-04-25T00:43:03.913Z,57.49
2023-04-25T00:45:31.567Z,57.48
2023-04-25T00:47:59.624Z,57.60
2023-04-25T00:50:27.491Z,57.62
2023-04-25T00:52:55.217Z,57.64
2023-04-25T00:55:23.173Z,57.72
2023-04-25T00:57:51.465Z,57.67
2023-04-25T01:00:21.686Z,57.94
2023-04-25T01:02:51.042Z,57.90
2023-04-25T01:05:19.926Z,57.97
2023-04-25T01:07:48.277Z,58.01
2023-04-25T01:10:16.144Z,57.96
2023-04-25T01:12:43.811Z,58.06
2023-04-25T01:15:11.534Z,58.02
2023-04-25T01:17:40.437Z,58.14
2023-04-25T01:20:10.397Z,58.31
2023-04-25T01:22:38.984Z,58.29
2023-04-25T01:25:08.147Z,58.33
2023-04-25T01:27:38.696Z,58.49
2023-04-25T01:30:06.867Z,58.52
2023-04-25T01:32:40.972Z,58.50
2023-04-25T01:35:11.062Z,58.72
2023-04-25T01:37:40.195Z,58.60
2023-04-25T01:40:11.543Z,58.65
2023-04-25T01:42:42.909Z,58.71
2023-04-25T01:45:11.747Z,58.71
2023-04-25T01:47:41.157Z,58.84
2023-04-25T01:50:18.451Z,58.95
2023-04-25T01:52:46.281Z,59.06
2023-04-25T01:55:13.805Z,59.01
2023-04-25T01:57:41.340Z,59.10
2023-04-25T02:00:10.248Z,59.13
2023-04-25T02:02:38.001Z,59.23
2023-04-25T02:05:06.631Z,59.21
2023-04-25T02:07:34.204Z,59.29
2023-04-25T02:10:02.095Z,59.15
2023-04-25T02:12:29.839Z,59.28
2023-04-25T02:14:57.406Z,59.30
2023-04-25T02:17:24.998Z,59.36
2023-04-25T02:19:52.932Z,59.42
2023-04-25T02:22:20.452Z,59.37
2023-04-25T02:24:48.027Z,59.34
2023-04-25T02:27:15.698Z,59.35
2023-04-25T02:29:43.166Z,59.41
2023-04-25T02:32:10.984Z,59.33
2023-04-25T02:34:38.584Z,59.44
2023-04-25T02:37:06.164Z,59.52
2023-04-25T02:39:33.854Z,59.65
2023-04-25T02:42:01.989Z,59.68
2023-04-25T02:44:29.561Z,59.71
2023-04-25T02:46:57.132Z,59.75
2023-04-25T02:49:24.675Z,59.85
2023-04-25T02:51:52.156Z,59.74
2023-04-25T02:54:19.628Z,59.98
2023-04-25T02:56:47.181Z,59.96
2023-04-25T02:59:14.767Z,59.96
2023-04-25T03:01:42.397Z,60.04
2023-04-25T03:04:09.970Z,60.10
2023-04-25T03:06:37.637Z,60.21
2023-04-25T03:09:05.255Z,60.16
2023-04-25T03:11:32.785Z,60.28
2023-04-25T03:14:00.504Z,60.38
2023-04-25T03:16:28.232Z,60.45
2023-04-25T03:18:55.766Z,60.43
2023-04-25T03:21:23.918Z,60.50
2023-04-25T03:23:51.827Z,60.60
2023-04-25T03:26:19.537Z,60.47
2023-04-25T03:28:47.089Z,60.55
2023-04-25T03:31:14.606Z,60.63
2023-04-25T03:33:42.215Z,60.70
2023-04-25T03:36:10.719Z,60.71
2023-04-25T03:38:38.342Z,60.73
2023-04-25T03:41:05.974Z,60.87
2023-04-25T03:43:33.612Z,60.98
2023-04-25T03:46:02.089Z,60.89
2023-04-25T03:48:29.639Z,60.94
2023-04-25T03:50:57.488Z,60.96
2023-04-25T03:53:25.757Z,60.99
2023-04-25T03:55:53.364Z,61.09
2023-04-25T03:58:20.865Z,61.19
2023-04-25T04:00:48.475Z,61.21
2023-04-25T04:03:16.255Z,61.14
2023-04-25T04:05:44.086Z,61.15
2023-04-25T04:08:11.681Z,61.01
2023-04-25T04:10:39.248Z,60.99
2023-04-25T04:13:06.825Z,61.05
2023-04-25T04:15:34.393Z,61.08
2023-04-25T04:18:03.869Z,61.01
2023-04-25T04:20:32.082Z,61.11
2023-04-25T04:22:59.717Z,61.31
2023-04-25T04:25:27.381Z,61.25
2023-04-25T04:27:55.976Z,61.18
2023-04-25T04:30:26.358Z,61.28
2023-04-25T04:32:53.886Z,61.21
2023-04-25T04:35:21.547Z,61.16
2023-04-25T04:37:49.255Z,61.26
2023-04-25T04:40:19.672Z,61.37
2023-04-25T04:42:48.554Z,61.39
2023-04-25T04:45:17.401Z,61.48
2023-04-25T04:47:45.773Z,61.48
2023-04-25T04:50:13.519Z,61.51
2023-04-25T04:52:41.212Z,61.56
2023-04-25T04:55:09.256Z,61.62
2023-04-25T04:57:38.040Z,61.65
2023-04-25T05:00:12.140Z,61.75
2023-04-25T05:02:40.040Z,61.76
2023-04-25T05:05:09.732Z,61.86
2023-04-25T05:07:37.309Z,62.03
2023-04-25T05:10:05.623Z,62.08
2023-04-25T05:12:34.133Z,61.99
2023-04-25T05:15:03.435Z,61.80
2023-04-25T05:17:32.690Z,61.93
2023-04-25T05:20:01.109Z,61.90
2023-04-25T05:22:28.678Z,61.98
2023-04-25T05:24:56.363Z,62.14
2023-04-25T05:27:31.881Z,61.97
2023-04-25T05:29:59.420Z,62.05
2023-04-25T05:32:27.580Z,62.08
2023-04-25T05:34:55.494Z,62.12
2023-04-25T05:37:23.251Z,62.16
2023-04-25T05:39:54.480Z,62.17
2023-04-25T05:42:22.310Z,62.23
2023-04-25T05:44:50.289Z,62.24
2023-04-25T05:47:17.942Z,62.20
2023-04-25T05:49:45.592Z,62.26
2023-04-25T05:52:13.166Z,62.13
2023-04-25T05:54:43.233Z,62.03
2023-04-25T05:57:30.479Z,62.13
2023-04-25T06:00:02.708Z,61.93
2023-04-25T06:02:37.325Z,62.12
2023-04-25T06:05:11.760Z,62.14
2023-04-25T06:07:39.870Z,62.05
2023-04-25T06:10:09.025Z,61.97
2023-04-25T06:12:36.989Z,61.96
2023-04-25T06:15:20.149Z,61.96
2023-04-25T06:17:54.365Z,61.86
2023-04-25T06:20:24.244Z,61.97
2023-04-25T06:22:52.893Z,61.87
2023-04-25T06:25:21.223Z,62.09
2023-04-25T06:27:49.888Z,62.09
2023-04-25T06:30:19.510Z,62.04
2023-04-25T06:32:47.181Z,61.99
2023-04-25T06:35:14.846Z,62.04
2023-04-25T06:37:42.427Z,62.05
2023-04-25T06:40:10.284Z,62.06
2023-04-25T06:42:37.860Z,62.01
2023-04-25T06:45:09.153Z,62.40
2023-04-25T06:47:36.728Z,62.13
2023-04-25T06:50:04.766Z,62.13
2023-04-25T06:52:32.393Z,61.89
2023-04-25T06:54:59.992Z,61.83
2023-04-25T06:57:27.603Z,62.01
2023-04-25T06:59:55.196Z,61.84
2023-04-25T07:02:24.081Z,61.83
2023-04-25T07:05:00.660Z,61.64
2023-04-25T07:07:28.246Z,61.43
2023-04-25T07:09:56.026Z,61.41
2023-04-25T07:12:23.684Z,61.36
2023-04-25T07:14:51.313Z,61.26
2023-04-25T07:17:18.851Z,61.22
2023-04-25T07:19:46.553Z,61.33
2023-04-25T07:22:14.648Z,61.45
2023-04-25T07:24:42.205Z,61.38
2023-04-25T07:27:10.230Z,61.29
2023-04-25T07:29:38.377Z,61.35
2023-04-25T07:32:06.101Z,61.32
2023-04-25T07:34:33.776Z,61.19
2023-04-25T07:37:01.502Z,61.19
2023-04-25T07:39:29.017Z,61.07
2023-04-25T07:41:57.115Z,61.05
2023-04-25T07:44:25.163Z,60.96
2023-04-25T07:46:52.773Z,60.88
2023-04-25T07:49:20.773Z,61.11
2023-04-25T07:51:48.531Z,62.27
2023-04-25T07:54:18.875Z,61.63
2023-04-25T07:56:52.823Z,60.80
2023-04-25T07:59:21.657Z,60.46
2023-04-25T08:01:50.815Z,60.97
2023-04-25T08:04:18.864Z,60.96
2023-04-25T08:06:47.239Z,60.55
2023-04-25T08:09:14.765Z,60.25
2023-04-25T08:11:43.040Z,60.18
2023-04-25T08:14:10.709Z,60.09
2023-04-25T08:16:38.488Z,60.09
2023-04-25T08:19:06.648Z,59.89
2023-04-25T08:21:34.346Z,59.93
2023-04-25T08:24:03.771Z,59.82
2023-04-25T08:26:31.866Z,59.73
2023-04-25T08:28:59.447Z,59.68
2023-04-25T08:31:29.526Z,59.62
2023-04-25T08:33:58.384Z,59.59
2023-04-25T08:36:38.363Z,59.58
2023-04-25T08:39:08.338Z,59.59
2023-04-25T08:41:38.426Z,59.75
2023-04-25T08:44:07.990Z,59.53
2023-04-25T08:46:40.893Z,59.54
2023-04-25T08:49:15.246Z,59.36
2023-04-25T08:51:48.144Z,59.58
2023-04-25T08:54:30.222Z,59.51
2023-04-25T08:57:05.443Z,59.40
2023-04-25T08:59:39.039Z,59.47
2023-04-25T09:02:07.144Z,59.50
2023-04-25T09:04:44.579Z,59.59
2023-04-25T09:07:19.889Z,59.49
2023-04-25T09:09:48.842Z,59.67
2023-04-25T09:12:21.278Z,59.56
2023-04-25T09:15:05.502Z,59.29
2023-04-25T09:17:33.328Z,59.19
2023-04-25T09:20:09.709Z,59.05
2023-04-25T09:22:38.344Z,59.05
2023-04-25T09:25:15.729Z,59.03
2023-04-25T09:28:04.540Z,59.24
2023-04-25T09:30:34.950Z,59.14
2023-04-25T09:33:12.090Z,59.11
2023-04-25T09:35:44.725Z,58.95
2023-04-25T09:38:14.416Z,58.90
2023-04-25T09:40:46.120Z,58.78
2023-04-25T09:43:21.957Z,58.60
2023-04-25T09:45:52.695Z,58.34
2023-04-25T09:48:22.011Z,57.88
2023-04-25T09:51:06.758Z,57.81
2023-04-25T09:53:40.220Z,57.45
2023-04-25T09:56:10.247Z,57.50
2023-04-25T09:58:39.768Z,57.44
2023-04-25T10:01:09.946Z,57.37
2023-04-25T10:03:46.006Z,57.14
2023-04-25T10:06:20.672Z,57.18
2023-04-25T10:08:53.238Z,57.13
2023-04-25T10:11:24.115Z,57.28
2023-04-25T10:13:52.316Z,57.09
2023-04-25T10:16:25.960Z,57.41
2023-04-25T10:18:54.219Z,57.41
2023-04-25T10:21:23.005Z,56.95
2023-04-25T10:23:51.429Z,56.79
2023-04-25T10:26:20.331Z,56.74
2023-04-25T10:29:04.691Z,56.89
2023-04-25T10:31:32.505Z,56.86
2023-04-25T10:34:02.538Z,56.69
2023-04-25T10:36:33.418Z,56.72
2023-04-25T10:39:12.894Z,56.52
2023-04-25T10:41:49.117Z,56.28
2023-04-25T10:44:17.089Z,56.12
2023-04-25T10:46:47.235Z,56.68
2023-04-25T10:49:31.999Z,56.71
2023-04-25T10:52:19.921Z,56.49
2023-04-25T10:54:53.878Z,56.15
2023-04-25T10:57:30.355Z,56.13
2023-04-25T11:00:06.413Z,56.17
2023-04-25T11:02:48.103Z,56.25
2023-04-25T11:05:41.087Z,56.25
2023-04-25T11:08:27.067Z,56.80
2023-04-25T11:10:55.875Z,56.30
2023-04-25T11:13:23.717Z,55.90
2023-04-25T11:16:03.089Z,55.22
2023-04-25T11:18:43.154Z,54.92
2023-04-25T11:21:12.377Z,55.42
2023-04-25T11:23:40.008Z,54.99
2023-04-25T11:26:08.922Z,54.97
2023-04-25T11:28:36.985Z,56.28
2023-04-25T11:31:05.518Z,55.71
2023-04-25T11:33:33.071Z,54.62
2023-04-25T11:36:00.711Z,54.65
2023-04-25T11:38:29.538Z,54.49
2023-04-25T11:40:58.192Z,54.28
2023-04-25T11:43:27.193Z,54.14
2023-04-25T11:45:54.969Z,53.62
2023-04-25T11:51:10.028Z,53.46
2023-04-25T11:51:17.472Z,53.24
2023-04-25T11:53:41.676Z,53.22
2023-04-25T11:56:12.863Z,53.28
2023-04-25T11:59:01.755Z,52.82
2023-04-25T12:01:35.314Z,52.28
2023-04-25T12:04:23.868Z,52.42
2023-04-25T12:06:56.623Z,52.13
2023-04-25T12:09:32.939Z,52.31
2023-04-25T12:12:04.087Z,52.39
2023-04-25T12:14:36.943Z,52.43
2023-04-25T12:17:09.001Z,52.65
2023-04-25T12:19:42.103Z,53.40
2023-04-25T12:22:25.868Z,53.69
2023-04-25T12:24:56.204Z,53.56
2023-04-25T12:27:27.748Z,53.65
2023-04-25T12:29:56.816Z,52.86
2023-04-25T12:32:25.018Z,52.82
2023-04-25T12:34:52.824Z,52.81
2023-04-25T12:37:20.518Z,52.46
2023-04-25T12:39:48.022Z,52.79
2023-04-25T12:42:15.674Z,53.02
2023-04-25T12:44:43.700Z,53.34
2023-04-25T12:47:13.128Z,53.14
2023-04-25T12:49:40.906Z,53.01
2023-04-25T12:52:14.227Z,53.11
2023-04-25T12:54:41.900Z,53.07
2023-04-25T12:57:09.501Z,53.15
2023-04-25T12:59:37.275Z,53.22
2023-04-25T13:02:05.822Z,52.96
2023-04-25T13:04:34.261Z,52.79
2023-04-25T13:07:02.156Z,52.88
2023-04-25T13:09:29.824Z,52.96
2023-04-25T13:11:59.418Z,52.72
2023-04-25T13:14:27.536Z,52.54
2023-04-25T13:16:55.567Z,52.62
2023-04-25T13:19:23.316Z,52.63
2023-04-25T13:21:50.941Z,52.60
2023-04-25T13:24:18.484Z,52.55
2023-04-25T13:26:46.085Z,52.53
2023-04-25T13:29:14.362Z,52.40
2023-04-25T13:31:41.940Z,52.31
2023-04-25T13:34:09.587Z,52.24
2023-04-25T13:36:37.324Z,52.39
2023-04-25T13:39:08.397Z,52.50
2023-04-25T13:41:36.040Z,52.65
2023-04-25T13:44:03.656Z,52.60
2023-04-25T13:46:45.496Z,52.45
2023-04-25T13:49:15.119Z,52.56
2023-04-25T13:51:43.585Z,52.39
2023-04-25T13:54:11.797Z,52.27
2023-04-25T13:56:39.529Z,52.35
2023-04-25T13:59:07.250Z,52.32
2023-04-25T14:01:36.390Z,52.43
2023-04-25T14:04:06.896Z,52.41
2023-04-25T14:06:36.361Z,52.43
2023-04-25T14:09:10.052Z,52.44
2023-04-25T14:11:37.748Z,52.32
2023-04-25T14:14:05.411Z,52.32
2023-04-25T14:16:33.247Z,52.23
2023-04-25T14:19:01.222Z,52.21
2023-04-25T14:21:29.151Z,52.43
2023-04-25T14:23:56.769Z,52.32
2023-04-25T14:26:24.565Z,52.37
2023-04-25T14:28:52.916Z,52.40
2023-04-25T14:31:21.029Z,52.43
2023-04-25T14:33:48.910Z,52.30
2023-04-25T14:36:17.054Z,52.27
2023-04-25T14:38:44.576Z,52.33
2023-04-25T14:41:12.336Z,52.35
2023-04-25T14:43:41.766Z,52.34
2023-04-25T14:46:10.101Z,52.43
2023-04-25T14:48:38.126Z,52.38
2023-04-25T14:51:05.843Z,52.47
2023-04-25T14:53:33.366Z,52.38
2023-04-25T14:56:01.073Z,52.32
2023-04-25T14:58:28.760Z,52.25
2023-04-25T15:00:57.033Z,52.41
2023-04-25T15:03:24.901Z,52.39
2023-04-25T15:05:53.698Z,52.19
2023-04-25T15:08:21.320Z,52.48
2023-04-25T15:10:48.995Z,52.64
2023-04-25T15:13:16.995Z,52.68
2023-04-25T15:15:44.518Z,52.80
2023-04-25T15:18:12.158Z,52.92
2023-04-25T15:20:39.689Z,52.95
2023-04-25T15:23:07.329Z,53.04
2023-04-25T15:25:34.826Z,53.01
2023-04-25T15:28:02.531Z,53.03
2023-04-25T15:30:30.210Z,53.01
2023-04-25T15:32:57.800Z,53.08
2023-04-25T15:35:25.474Z,52.96
2023-04-25T15:37:53.009Z,52.95
2023-04-25T15:40:20.528Z,52.90
2023-04-25T15:42:53.482Z,52.83
2023-04-25T15:45:25.740Z,52.60
2023-04-25T15:47:55.776Z,52.45
2023-04-25T15:50:24.603Z,52.42
2023-04-25T15:52:52.389Z,52.51
2023-04-25T15:55:26.882Z,52.31
2023-04-25T15:57:54.566Z,52.49
2023-04-25T16:00:23.608Z,52.52
2023-04-25T16:02:51.606Z,52.31
2023-04-25T16:05:20.675Z,52.27
2023-04-25T16:07:53.493Z,52.34
2023-04-25T16:10:21.783Z,52.34
2023-04-25T16:12:50.435Z,52.34
2023-04-25T16:15:19.060Z,52.38
2023-04-25T16:17:46.732Z,52.39
2023-04-25T16:20:14.976Z,52.39
2023-04-25T16:22:44.370Z,52.47
2023-04-25T16:25:12.540Z,52.46
2023-04-25T16:27:40.388Z,52.40
2023-04-25T16:30:10.396Z,52.20
2023-04-25T16:32:39.872Z,52.31
2023-04-25T16:35:08.711Z,52.36
2023-04-25T16:37:36.665Z,52.26
2023-04-25T16:40:04.769Z,52.41
2023-04-25T16:42:32.408Z,52.38
2023-04-25T16:45:00.084Z,52.70
2023-04-25T16:47:27.809Z,52.62
2023-04-25T16:49:55.954Z,52.61
2023-04-25T16:52:23.762Z,52.49
2023-04-25T16:54:51.613Z,52.63
2023-04-25T16:57:19.162Z,52.59
2023-04-25T16:59:46.743Z,52.72
2023-04-25T17:02:14.919Z,52.70
2023-04-25T17:04:43.590Z,52.66
2023-04-25T17:07:11.216Z,52.78
2023-04-25T17:09:38.936Z,52.86
2023-04-25T17:12:07.211Z,52.90
2023-04-25T17:14:35.980Z,52.95
2023-04-25T17:17:03.867Z,53.10
2023-04-25T17:19:32.130Z,53.09
2023-04-25T17:21:59.809Z,53.12
2023-04-25T17:24:27.430Z,53.28
2023-04-25T17:26:56.605Z,53.29
2023-04-25T17:29:24.187Z,53.32
2023-04-25T17:31:53.187Z,53.39
2023-04-25T17:34:21.416Z,53.44
2023-04-25T17:36:49.043Z,53.47
2023-04-25T17:39:17.778Z,53.53
2023-04-25T17:41:45.784Z,53.63
2023-04-25T17:44:13.444Z,53.72
2023-04-25T17:46:41.597Z,53.53
2023-04-25T17:49:09.570Z,53.62
2023-04-25T17:51:37.532Z,53.63
2023-04-25T17:54:05.208Z,53.63
2023-04-25T17:56:37.413Z,53.48
2023-04-25T17:59:04.889Z,53.82
2023-04-25T18:01:32.551Z,53.92
2023-04-25T18:04:00.638Z,54.19
2023-04-25T18:06:28.441Z,54.41
2023-04-25T18:08:57.108Z,54.56
2023-04-25T18:11:25.365Z,54.63
2023-04-25T18:13:53.062Z,54.71
2023-04-25T18:16:20.802Z,54.79
2023-04-25T18:19:05.451Z,55.03
2023-04-25T18:21:32.974Z,55.10
2023-04-25T18:24:01.119Z,55.20
2023-04-25T18:26:30.851Z,55.16
2023-04-25T18:28:58.918Z,55.42
2023-04-25T18:31:26.631Z,55.48
2023-04-25T18:33:54.401Z,55.60
2023-04-25T18:36:22.171Z,55.44
2023-04-25T18:38:56.208Z,55.58
2023-04-25T18:41:51.106Z,55.67
2023-04-25T18:44:12.618Z,55.77
2023-04-25T18:46:43.437Z,55.74
2023-04-25T18:49:11.092Z,55.79
2023-04-25T18:51:38.817Z,55.76
2023-04-25T18:54:09.002Z,55.84
2023-04-25T18:56:36.615Z,55.88
2023-04-25T18:59:04.186Z,55.70
2023-04-25T19:01:32.213Z,55.68
2023-04-25T19:04:03.460Z,55.76
2023-04-25T19:06:32.996Z,55.68
2023-04-25T19:09:00.937Z,55.93
2023-04-25T19:11:28.474Z,55.88
2023-04-25T19:13:57.046Z,55.98
2023-04-25T19:16:26.530Z,56.04
2023-04-25T19:18:56.626Z,56.01
2023-04-25T19:21:24.236Z,56.06
2023-04-25T19:23:54.405Z,56.16
2023-04-25T19:26:22.456Z,56.05
2023-04-25T19:29:05.962Z,56.03
2023-04-25T19:31:35.571Z,56.02
2023-04-25T19:34:05.024Z,56.04
2023-04-25T19:36:33.189Z,56.21
2023-04-25T19:39:04.468Z,56.28
2023-04-25T19:41:33.654Z,56.41
2023-04-25T19:44:04.972Z,56.44
2023-04-25T19:46:33.928Z,56.43
2023-04-25T19:49:01.871Z,56.53
2023-04-25T19:51:29.744Z,56.61
2023-04-25T19:53:57.325Z,56.44
2023-04-25T19:56:26.524Z,56.46
2023-04-25T19:58:54.989Z,56.53
2023-04-25T20:01:23.135Z,56.53
2023-04-25T20:03:54.038Z,56.64
2023-04-25T20:06:22.145Z,56.63
2023-04-25T20:08:53.706Z,56.63
2023-04-25T20:11:21.750Z,56.67
2023-04-25T20:13:49.684Z,56.79
2023-04-25T20:16:20.354Z,56.87
2023-04-25T20:18:49.007Z,56.86
2023-04-25T20:21:17.451Z,56.86
2023-04-25T20:23:45.892Z,56.96
2023-04-25T20:26:13.591Z,57.02
2023-04-25T20:28:44.572Z,57.10
2023-04-25T20:31:12.120Z,57.07
2023-04-25T20:33:41.675Z,57.14
2023-04-25T20:36:09.927Z,57.20
2023-04-25T20:38:38.000Z,57.29
2023-04-25T20:41:05.554Z,57.13
2023-04-25T20:43:33.514Z,57.38
2023-04-25T20:46:01.144Z,57.36
2023-04-25T20:48:28.651Z,57.33
2023-04-25T20:50:56.987Z,57.58
2023-04-25T20:53:24.577Z,57.50
2023-04-25T20:55:52.447Z,57.56
2023-04-25T20:58:20.741Z,57.53
2023-04-25T21:00:48.920Z,57.50
2023-04-25T21:03:17.567Z,57.55
2023-04-25T21:05:46.511Z,57.63
2023-04-25T21:08:14.297Z,57.57
2023-04-25T21:10:42.227Z,57.58
2023-04-25T21:13:09.848Z,57.54
2023-04-25T21:15:37.683Z,57.62
2023-04-25T21:18:05.558Z,57.51
2023-04-25T21:20:33.171Z,57.73
2023-04-25T21:23:00.714Z,57.66
2023-04-25T21:25:32.001Z,57.73
2023-04-25T21:27:59.773Z,57.63
2023-04-25T21:30:27.708Z,57.63
2023-04-25T21:32:56.375Z,57.75
2023-04-25T21:35:24.690Z,57.77
2023-04-25T21:37:52.357Z,57.67
2023-04-25T21:40:20.007Z,57.71
2023-04-25T21:42:53.177Z,57.87
2023-04-25T21:45:20.946Z,57.84
2023-04-25T21:47:48.650Z,57.70
2023-04-25T21:50:17.071Z,57.76
2023-04-25T21:52:44.747Z,57.99
2023-04-25T21:55:12.986Z,58.06
2023-04-25T21:57:41.199Z,57.99
2023-04-25T22:00:20.954Z,57.94
2023-04-25T22:02:48.787Z,57.93
2023-04-25T22:05:23.108Z,58.04
2023-04-25T22:07:52.929Z,58.06
2023-04-25T22:10:21.827Z,57.95
2023-04-25T22:12:50.837Z,58.02
2023-04-25T22:15:25.266Z,57.93
2023-04-25T22:17:56.733Z,57.95
2023-04-25T22:20:27.970Z,58.08
2023-04-25T22:22:56.298Z,58.16
2023-04-25T22:25:24.671Z,58.24
2023-04-25T22:27:52.241Z,58.23
2023-04-25T22:30:19.838Z,58.31
2023-04-25T22:32:47.700Z,58.16
2023-04-25T22:35:15.423Z,58.13
2023-04-25T22:37:42.922Z,58.37
2023-04-25T22:40:11.204Z,58.30
2023-04-25T22:42:40.287Z,58.35
2023-04-25T22:45:09.469Z,58.59
2023-04-25T22:47:39.240Z,58.50
2023-04-25T22:50:13.322Z,58.61
2023-04-25T22:52:42.661Z,58.33
2023-04-25T22:55:13.060Z,58.63
2023-04-25T22:57:41.304Z,58.74
2023-04-25T23:00:16.690Z,58.66
2023-04-25T23:02:45.883Z,58.70
2023-04-25T23:05:15.352Z,58.60
2023-04-25T23:07:44.659Z,58.80
2023-04-25T23:10:13.185Z,58.69
2023-04-25T23:12:40.849Z,58.52
2023-04-25T23:15:10.059Z,58.61
2023-04-25T23:17:37.912Z,58.64
2023-04-25T23:20:10.499Z,58.79
2023-04-25T23:22:38.771Z,58.71
2023-04-25T23:25:07.573Z,58.77
2023-04-25T23:27:35.074Z,58.89
2023-04-25T23:30:02.779Z,58.90
2023-04-25T23:32:30.931Z,58.86
2023-04-25T23:34:58.515Z,58.91
2023-04-25T23:37:26.372Z,59.13
2023-04-25T23:39:53.928Z,59.13
2023-04-25T23:42:21.492Z,59.26
2023-04-25T23:44:49.011Z,59.28
2023-04-25T23:47:17.771Z,59.37
2023-04-25T23:49:45.781Z,59.46
2023-04-25T23:52:13.446Z,59.57
2023-04-25T23:54:41.019Z,59.71
2023-04-25T23:57:08.631Z,59.61
2023-04-25T23:59:36.137Z,59.68
